sensor_id;sensor_type;location;lat;lon;timestamp;temperature;humidity
13606;DHT22;6874;52.084;5.090;2023-02-22T00:01:12;7.90;99.90
13606;DHT22;6874;52.084;5.090;2023-02-22T00:04:00;7.90;99.90
13606;DHT22;6874;52.084;5.090;2023-02-22T00:06:26;7.90;99.90
13606;DHT22;6874;52.084;5.090;2023-02-22T00:08:52;7.90;99.90
13606;DHT22;6874;52.084;5.090;2023-02-22T00:11:18;7.80;99.90
13606;DHT22;6874;52.084;5.090;2023-02-22T00:13:45;7.80;99.90
13606;DHT22;6874;52.084;5.090;2023-02-22T00:16:19;7.80;99.90
13606;DHT22;6874;52.084;5.090;2023-02-22T00:18:45;7.80;99.90
13606;DHT22;6874;52.084;5.090;2023-02-22T00:21:12;7.80;99.90
13606;DHT22;6874;52.084;5.090;2023-02-22T00:23:44;7.80;99.90
13606;DHT22;6874;52.084;5.090;2023-02-22T00:26:19;7.80;99.90
13606;DHT22;6874;52.084;5.090;2023-02-22T00:28:46;7.80;99.90
13606;DHT22;6874;52.084;5.090;2023-02-22T00:31:12;7.80;99.90
13606;DHT22;6874;52.084;5.090;2023-02-22T00:33:39;7.80;99.90
13606;DHT22;6874;52.084;5.090;2023-02-22T00:36:05;7.80;99.90
13606;DHT22;6874;52.084;5.090;2023-02-22T00:38:30;7.70;99.90
13606;DHT22;6874;52.084;5.090;2023-02-22T00:40:56;7.70;99.90
13606;DHT22;6874;52.084;5.090;2023-02-22T00:43:21;7.70;99.90
13606;DHT22;6874;52.084;5.090;2023-02-22T00:45:47;7.70;99.90
13606;DHT22;6874;52.084;5.090;2023-02-22T00:48:13;7.70;99.90
13606;DHT22;6874;52.084;5.090;2023-02-22T00:50:39;7.70;99.90
13606;DHT22;6874;52.084;5.090;2023-02-22T00:53:05;7.70;99.90
13606;DHT22;6874;52.084;5.090;2023-02-22T00:55:35;7.70;99.90
13606;DHT22;6874;52.084;5.090;2023-02-22T00:58:01;7.70;99.90
13606;DHT22;6874;52.084;5.090;2023-02-22T01:00:33;7.70;99.90
13606;DHT22;6874;52.084;5.090;2023-02-22T01:02:59;7.70;99.90
13606;DHT22;6874;52.084;5.090;2023-02-22T01:05:28;7.70;99.90
13606;DHT22;6874;52.084;5.090;2023-02-22T01:07:55;7.60;99.90
13606;DHT22;6874;52.084;5.090;2023-02-22T01:10:23;7.60;99.90
13606;DHT22;6874;52.084;5.090;2023-02-22T01:12:50;7.60;99.90
13606;DHT22;6874;52.084;5.090;2023-02-22T01:15:18;7.60;99.90
13606;DHT22;6874;52.084;5.090;2023-02-22T01:17:49;7.60;99.90
13606;DHT22;6874;52.084;5.090;2023-02-22T01:20:16;7.60;99.90
13606;DHT22;6874;52.084;5.090;2023-02-22T01:22:45;7.60;99.90
13606;DHT22;6874;52.084;5.090;2023-02-22T01:25:14;7.60;99.90
13606;DHT22;6874;52.084;5.090;2023-02-22T01:27:40;7.60;99.90
13606;DHT22;6874;52.084;5.090;2023-02-22T01:30:06;7.60;99.90
13606;DHT22;6874;52.084;5.090;2023-02-22T01:32:34;7.60;99.90
13606;DHT22;6874;52.084;5.090;2023-02-22T01:35:00;7.60;99.90
13606;DHT22;6874;52.084;5.090;2023-02-22T01:37:26;7.50;99.90
13606;DHT22;6874;52.084;5.090;2023-02-22T01:39:51;7.50;99.90
13606;DHT22;6874;52.084;5.090;2023-02-22T01:42:17;7.50;99.90
13606;DHT22;6874;52.084;5.090;2023-02-22T01:44:42;7.50;99.90
13606;DHT22;6874;52.084;5.090;2023-02-22T01:47:08;7.50;99.90
13606;DHT22;6874;52.084;5.090;2023-02-22T01:49:49;7.50;99.90
13606;DHT22;6874;52.084;5.090;2023-02-22T01:52:17;7.50;99.90
13606;DHT22;6874;52.084;5.090;2023-02-22T01:54:54;7.50;99.90
13606;DHT22;6874;52.084;5.090;2023-02-22T01:57:29;7.50;99.90
13606;DHT22;6874;52.084;5.090;2023-02-22T01:59:59;7.50;99.90
13606;DHT22;6874;52.084;5.090;2023-02-22T02:02:27;7.40;99.90
13606;DHT22;6874;52.084;5.090;2023-02-22T02:04:54;7.40;99.90
13606;DHT22;6874;52.084;5.090;2023-02-22T02:07:21;7.40;99.90
13606;DHT22;6874;52.084;5.090;2023-02-22T02:09:59;7.40;99.90
13606;DHT22;6874;52.084;5.090;2023-02-22T02:12:26;7.40;99.90
13606;DHT22;6874;52.084;5.090;2023-02-22T02:15:24;7.40;99.90
13606;DHT22;6874;52.084;5.090;2023-02-22T02:17:52;7.40;99.90
13606;DHT22;6874;52.084;5.090;2023-02-22T02:26:08;7.40;99.90
13606;DHT22;6874;52.084;5.090;2023-02-22T02:38:01;7.30;99.90
13606;DHT22;6874;52.084;5.090;2023-02-22T02:41:18;7.30;99.90
13606;DHT22;6874;52.084;5.090;2023-02-22T02:46:22;7.30;99.90
13606;DHT22;6874;52.084;5.090;2023-02-22T02:49:07;7.30;99.90
13606;DHT22;6874;52.084;5.090;2023-02-22T02:51:41;7.20;99.90
13606;DHT22;6874;52.084;5.090;2023-02-22T02:54:09;7.20;99.90
13606;DHT22;6874;52.084;5.090;2023-02-22T02:56:36;7.20;99.90
13606;DHT22;6874;52.084;5.090;2023-02-22T02:59:02;7.20;99.90
13606;DHT22;6874;52.084;5.090;2023-02-22T03:04:00;7.20;99.90
13606;DHT22;6874;52.084;5.090;2023-02-22T03:09:37;7.10;99.90
13606;DHT22;6874;52.084;5.090;2023-02-22T03:15:11;7.10;99.90
13606;DHT22;6874;52.084;5.090;2023-02-22T03:20:11;7.10;99.90
13606;DHT22;6874;52.084;5.090;2023-02-22T03:22:43;7.10;99.90
13606;DHT22;6874;52.084;5.090;2023-02-22T03:25:21;7.10;99.90
13606;DHT22;6874;52.084;5.090;2023-02-22T03:27:56;7.00;99.90
13606;DHT22;6874;52.084;5.090;2023-02-22T03:30:40;7.00;99.90
13606;DHT22;6874;52.084;5.090;2023-02-22T03:33:30;7.00;99.90
13606;DHT22;6874;52.084;5.090;2023-02-22T03:36:01;7.00;99.90
13606;DHT22;6874;52.084;5.090;2023-02-22T03:38:31;7.00;99.90
13606;DHT22;6874;52.084;5.090;2023-02-22T03:40:59;7.00;99.90
13606;DHT22;6874;52.084;5.090;2023-02-22T03:43:30;7.00;99.90
13606;DHT22;6874;52.084;5.090;2023-02-22T03:45:57;7.00;99.90
13606;DHT22;6874;52.084;5.090;2023-02-22T03:50:49;6.90;99.90
13606;DHT22;6874;52.084;5.090;2023-02-22T03:53:17;6.90;99.90
13606;DHT22;6874;52.084;5.090;2023-02-22T03:55:44;6.90;99.90
13606;DHT22;6874;52.084;5.090;2023-02-22T03:58:11;6.90;99.90
13606;DHT22;6874;52.084;5.090;2023-02-22T04:00:38;6.80;99.90
13606;DHT22;6874;52.084;5.090;2023-02-22T04:03:09;6.90;99.90
13606;DHT22;6874;52.084;5.090;2023-02-22T04:05:34;6.90;99.90
13606;DHT22;6874;52.084;5.090;2023-02-22T04:08:00;6.80;99.90
13606;DHT22;6874;52.084;5.090;2023-02-22T04:10:25;6.80;99.90
13606;DHT22;6874;52.084;5.090;2023-02-22T04:12:51;6.80;99.90
13606;DHT22;6874;52.084;5.090;2023-02-22T04:15:22;6.80;99.90
13606;DHT22;6874;52.084;5.090;2023-02-22T04:17:48;6.80;99.90
13606;DHT22;6874;52.084;5.090;2023-02-22T04:20:14;6.90;99.90
13606;DHT22;6874;52.084;5.090;2023-02-22T04:22:44;6.80;99.90
13606;DHT22;6874;52.084;5.090;2023-02-22T04:25:11;6.80;99.90
13606;DHT22;6874;52.084;5.090;2023-02-22T04:27:36;6.80;99.90
13606;DHT22;6874;52.084;5.090;2023-02-22T04:30:02;6.80;99.90
13606;DHT22;6874;52.084;5.090;2023-02-22T04:32:28;6.70;99.90
13606;DHT22;6874;52.084;5.090;2023-02-22T04:34:53;6.80;99.90
13606;DHT22;6874;52.084;5.090;2023-02-22T04:37:19;6.70;99.90
13606;DHT22;6874;52.084;5.090;2023-02-22T04:39:46;6.70;99.90
13606;DHT22;6874;52.084;5.090;2023-02-22T04:42:11;6.80;99.90
13606;DHT22;6874;52.084;5.090;2023-02-22T04:44:37;6.70;99.90
13606;DHT22;6874;52.084;5.090;2023-02-22T04:47:03;6.70;99.90
13606;DHT22;6874;52.084;5.090;2023-02-22T04:49:28;6.70;99.90
13606;DHT22;6874;52.084;5.090;2023-02-22T04:51:54;6.70;99.90
13606;DHT22;6874;52.084;5.090;2023-02-22T04:54:19;6.70;99.90
13606;DHT22;6874;52.084;5.090;2023-02-22T04:56:45;6.70;99.90
13606;DHT22;6874;52.084;5.090;2023-02-22T04:59:10;6.70;99.90
13606;DHT22;6874;52.084;5.090;2023-02-22T05:01:36;6.60;99.90
13606;DHT22;6874;52.084;5.090;2023-02-22T05:04:03;6.70;99.90
13606;DHT22;6874;52.084;5.090;2023-02-22T05:06:29;6.70;99.90
13606;DHT22;6874;52.084;5.090;2023-02-22T05:08:55;6.70;99.90
13606;DHT22;6874;52.084;5.090;2023-02-22T05:11:21;6.80;99.90
13606;DHT22;6874;52.084;5.090;2023-02-22T05:13:47;6.60;99.90
13606;DHT22;6874;52.084;5.090;2023-02-22T05:16:13;6.60;99.90
13606;DHT22;6874;52.084;5.090;2023-02-22T05:18:39;6.60;99.90
13606;DHT22;6874;52.084;5.090;2023-02-22T05:21:04;6.60;99.90
13606;DHT22;6874;52.084;5.090;2023-02-22T05:23:31;6.60;99.90
13606;DHT22;6874;52.084;5.090;2023-02-22T05:25:57;6.60;99.90
13606;DHT22;6874;52.084;5.090;2023-02-22T05:28:23;6.60;99.90
13606;DHT22;6874;52.084;5.090;2023-02-22T05:30:48;6.60;99.90
13606;DHT22;6874;52.084;5.090;2023-02-22T05:33:14;6.60;99.90
13606;DHT22;6874;52.084;5.090;2023-02-22T05:35:40;6.50;99.90
13606;DHT22;6874;52.084;5.090;2023-02-22T05:38:05;6.60;99.90
13606;DHT22;6874;52.084;5.090;2023-02-22T05:40:32;6.60;99.90
13606;DHT22;6874;52.084;5.090;2023-02-22T05:42:58;6.60;99.90
13606;DHT22;6874;52.084;5.090;2023-02-22T05:45:26;6.60;99.90
13606;DHT22;6874;52.084;5.090;2023-02-22T05:47:52;6.50;99.90
13606;DHT22;6874;52.084;5.090;2023-02-22T05:50:19;6.50;99.90
13606;DHT22;6874;52.084;5.090;2023-02-22T05:52:46;6.50;99.90
13606;DHT22;6874;52.084;5.090;2023-02-22T05:55:14;6.50;99.90
13606;DHT22;6874;52.084;5.090;2023-02-22T05:57:39;6.50;99.90
13606;DHT22;6874;52.084;5.090;2023-02-22T06:00:06;6.50;99.90
13606;DHT22;6874;52.084;5.090;2023-02-22T06:02:33;6.50;99.90
13606;DHT22;6874;52.084;5.090;2023-02-22T06:04:58;6.50;99.90
13606;DHT22;6874;52.084;5.090;2023-02-22T06:07:24;6.50;99.90
13606;DHT22;6874;52.084;5.090;2023-02-22T06:09:50;6.50;99.90
13606;DHT22;6874;52.084;5.090;2023-02-22T06:12:15;6.50;99.90
13606;DHT22;6874;52.084;5.090;2023-02-22T06:14:42;6.50;99.90
13606;DHT22;6874;52.084;5.090;2023-02-22T06:17:12;6.50;99.90
13606;DHT22;6874;52.084;5.090;2023-02-22T06:19:37;6.50;99.90
13606;DHT22;6874;52.084;5.090;2023-02-22T06:22:05;6.50;99.90
13606;DHT22;6874;52.084;5.090;2023-02-22T06:24:30;6.50;99.90
13606;DHT22;6874;52.084;5.090;2023-02-22T06:26:58;6.40;99.90
13606;DHT22;6874;52.084;5.090;2023-02-22T06:29:25;6.50;99.90
13606;DHT22;6874;52.084;5.090;2023-02-22T06:31:51;6.50;99.90
13606;DHT22;6874;52.084;5.090;2023-02-22T06:34:17;6.50;99.90
13606;DHT22;6874;52.084;5.090;2023-02-22T06:36:43;6.50;99.90
13606;DHT22;6874;52.084;5.090;2023-02-22T06:39:09;6.40;99.90
13606;DHT22;6874;52.084;5.090;2023-02-22T06:41:40;6.40;99.90
13606;DHT22;6874;52.084;5.090;2023-02-22T06:44:07;6.40;99.90
13606;DHT22;6874;52.084;5.090;2023-02-22T06:46:33;6.40;99.90
13606;DHT22;6874;52.084;5.090;2023-02-22T06:48:59;6.40;99.90
13606;DHT22;6874;52.084;5.090;2023-02-22T06:51:26;6.40;99.90
13606;DHT22;6874;52.084;5.090;2023-02-22T06:53:51;6.40;99.90
13606;DHT22;6874;52.084;5.090;2023-02-22T06:56:18;6.40;99.90
13606;DHT22;6874;52.084;5.090;2023-02-22T06:58:43;6.40;99.90
13606;DHT22;6874;52.084;5.090;2023-02-22T07:01:09;6.40;99.90
13606;DHT22;6874;52.084;5.090;2023-02-22T07:03:35;6.40;99.90
13606;DHT22;6874;52.084;5.090;2023-02-22T07:06:01;6.40;99.90
13606;DHT22;6874;52.084;5.090;2023-02-22T07:08:27;6.40;99.90
13606;DHT22;6874;52.084;5.090;2023-02-22T07:10:53;6.40;99.90
13606;DHT22;6874;52.084;5.090;2023-02-22T07:13:19;6.40;99.90
13606;DHT22;6874;52.084;5.090;2023-02-22T07:15:44;6.40;99.90
13606;DHT22;6874;52.084;5.090;2023-02-22T07:18:10;6.40;99.90
13606;DHT22;6874;52.084;5.090;2023-02-22T07:20:36;6.40;99.90
13606;DHT22;6874;52.084;5.090;2023-02-22T07:23:03;6.40;99.90
13606;DHT22;6874;52.084;5.090;2023-02-22T07:25:29;6.40;99.90
13606;DHT22;6874;52.084;5.090;2023-02-22T07:27:54;6.40;99.90
13606;DHT22;6874;52.084;5.090;2023-02-22T07:30:23;6.40;99.90
13606;DHT22;6874;52.084;5.090;2023-02-22T07:32:51;6.30;99.90
13606;DHT22;6874;52.084;5.090;2023-02-22T07:35:22;6.40;99.90
13606;DHT22;6874;52.084;5.090;2023-02-22T07:37:48;6.40;99.90
13606;DHT22;6874;52.084;5.090;2023-02-22T07:40:15;6.40;99.90
13606;DHT22;6874;52.084;5.090;2023-02-22T07:43:02;6.40;99.90
13606;DHT22;6874;52.084;5.090;2023-02-22T07:45:30;6.40;99.90
13606;DHT22;6874;52.084;5.090;2023-02-22T07:47:57;6.40;99.90
13606;DHT22;6874;52.084;5.090;2023-02-22T07:50:24;6.40;99.90
13606;DHT22;6874;52.084;5.090;2023-02-22T07:52:52;6.40;99.90
13606;DHT22;6874;52.084;5.090;2023-02-22T07:55:20;6.40;99.90
13606;DHT22;6874;52.084;5.090;2023-02-22T07:57:47;6.40;99.90
13606;DHT22;6874;52.084;5.090;2023-02-22T08:00:15;6.40;99.90
13606;DHT22;6874;52.084;5.090;2023-02-22T08:02:41;6.40;99.90
13606;DHT22;6874;52.084;5.090;2023-02-22T08:05:08;6.40;99.90
13606;DHT22;6874;52.084;5.090;2023-02-22T08:07:35;6.40;99.90
13606;DHT22;6874;52.084;5.090;2023-02-22T08:10:01;6.40;99.90
13606;DHT22;6874;52.084;5.090;2023-02-22T08:12:31;6.40;99.90
13606;DHT22;6874;52.084;5.090;2023-02-22T08:14:57;6.40;99.90
13606;DHT22;6874;52.084;5.090;2023-02-22T08:17:22;6.40;99.90
13606;DHT22;6874;52.084;5.090;2023-02-22T08:19:48;6.40;99.90
13606;DHT22;6874;52.084;5.090;2023-02-22T08:22:13;6.40;99.90
13606;DHT22;6874;52.084;5.090;2023-02-22T08:24:39;6.40;99.90
13606;DHT22;6874;52.084;5.090;2023-02-22T08:27:05;6.40;99.90
13606;DHT22;6874;52.084;5.090;2023-02-22T08:29:30;6.40;99.90
13606;DHT22;6874;52.084;5.090;2023-02-22T08:32:01;6.50;99.90
13606;DHT22;6874;52.084;5.090;2023-02-22T08:34:27;6.50;99.90
13606;DHT22;6874;52.084;5.090;2023-02-22T08:36:53;6.40;99.90
13606;DHT22;6874;52.084;5.090;2023-02-22T08:39:18;6.50;99.90
13606;DHT22;6874;52.084;5.090;2023-02-22T08:41:44;6.50;99.90
13606;DHT22;6874;52.084;5.090;2023-02-22T08:44:10;6.50;99.90
13606;DHT22;6874;52.084;5.090;2023-02-22T08:46:35;6.50;99.90
13606;DHT22;6874;52.084;5.090;2023-02-22T08:49:01;6.50;99.90
13606;DHT22;6874;52.084;5.090;2023-02-22T08:51:27;6.50;99.90
13606;DHT22;6874;52.084;5.090;2023-02-22T08:53:53;6.50;99.90
13606;DHT22;6874;52.084;5.090;2023-02-22T08:56:19;6.50;99.90
13606;DHT22;6874;52.084;5.090;2023-02-22T08:58:45;6.50;99.90
13606;DHT22;6874;52.084;5.090;2023-02-22T09:01:10;6.60;99.90
13606;DHT22;6874;52.084;5.090;2023-02-22T09:03:36;6.50;99.90
13606;DHT22;6874;52.084;5.090;2023-02-22T09:06:03;6.60;99.90
13606;DHT22;6874;52.084;5.090;2023-02-22T09:08:29;6.50;99.90
13606;DHT22;6874;52.084;5.090;2023-02-22T09:10:55;6.60;99.90
13606;DHT22;6874;52.084;5.090;2023-02-22T09:13:20;6.50;99.90
13606;DHT22;6874;52.084;5.090;2023-02-22T09:15:46;6.60;99.90
13606;DHT22;6874;52.084;5.090;2023-02-22T09:18:13;6.60;99.90
13606;DHT22;6874;52.084;5.090;2023-02-22T09:20:39;6.60;99.90
13606;DHT22;6874;52.084;5.090;2023-02-22T09:23:06;6.70;99.90
13606;DHT22;6874;52.084;5.090;2023-02-22T09:25:34;6.70;99.90
13606;DHT22;6874;52.084;5.090;2023-02-22T09:28:00;6.70;99.90
13606;DHT22;6874;52.084;5.090;2023-02-22T09:30:31;6.70;99.90
13606;DHT22;6874;52.084;5.090;2023-02-22T09:33:00;6.70;99.90
13606;DHT22;6874;52.084;5.090;2023-02-22T09:35:26;6.70;99.90
13606;DHT22;6874;52.084;5.090;2023-02-22T09:37:57;6.70;99.90
13606;DHT22;6874;52.084;5.090;2023-02-22T09:40:23;6.80;99.90
13606;DHT22;6874;52.084;5.090;2023-02-22T09:43:17;6.80;99.90
13606;DHT22;6874;52.084;5.090;2023-02-22T09:46:25;6.90;99.90
13606;DHT22;6874;52.084;5.090;2023-02-22T09:52:17;6.90;99.90
13606;DHT22;6874;52.084;5.090;2023-02-22T09:54:48;6.90;99.90
13606;DHT22;6874;52.084;5.090;2023-02-22T09:57:24;6.90;99.90
13606;DHT22;6874;52.084;5.090;2023-02-22T10:00:03;7.00;99.90
13606;DHT22;6874;52.084;5.090;2023-02-22T10:02:43;7.00;99.90
13606;DHT22;6874;52.084;5.090;2023-02-22T10:05:21;7.00;99.90
13606;DHT22;6874;52.084;5.090;2023-02-22T10:07:57;7.10;99.90
13606;DHT22;6874;52.084;5.090;2023-02-22T10:10:25;7.10;99.90
13606;DHT22;6874;52.084;5.090;2023-02-22T10:16:05;7.20;99.90
13606;DHT22;6874;52.084;5.090;2023-02-22T10:18:54;7.20;99.90
13606;DHT22;6874;52.084;5.090;2023-02-22T10:24:37;7.30;99.90
13606;DHT22;6874;52.084;5.090;2023-02-22T10:27:18;7.30;99.90
13606;DHT22;6874;52.084;5.090;2023-02-22T10:30:35;7.30;99.90
13606;DHT22;6874;52.084;5.090;2023-02-22T10:32:41;7.40;99.90
13606;DHT22;6874;52.084;5.090;2023-02-22T10:35:29;7.40;99.90
13606;DHT22;6874;52.084;5.090;2023-02-22T10:38:32;7.40;99.90
13606;DHT22;6874;52.084;5.090;2023-02-22T10:43:33;7.50;99.90
13606;DHT22;6874;52.084;5.090;2023-02-22T10:46:04;7.50;99.90
13606;DHT22;6874;52.084;5.090;2023-02-22T10:48:35;7.50;99.90
13606;DHT22;6874;52.084;5.090;2023-02-22T10:51:04;7.50;99.90
13606;DHT22;6874;52.084;5.090;2023-02-22T10:53:30;7.60;99.90
13606;DHT22;6874;52.084;5.090;2023-02-22T10:56:13;7.60;99.90
13606;DHT22;6874;52.084;5.090;2023-02-22T11:04:15;7.70;99.90
13606;DHT22;6874;52.084;5.090;2023-02-22T11:06:47;7.70;99.90
13606;DHT22;6874;52.084;5.090;2023-02-22T11:09:21;7.70;99.90
13606;DHT22;6874;52.084;5.090;2023-02-22T11:11:49;7.80;99.90
13606;DHT22;6874;52.084;5.090;2023-02-22T11:14:26;7.80;99.90
13606;DHT22;6874;52.084;5.090;2023-02-22T11:16:53;7.90;99.90
13606;DHT22;6874;52.084;5.090;2023-02-22T11:19:27;7.90;99.90
13606;DHT22;6874;52.084;5.090;2023-02-22T11:21:58;7.90;99.90
13606;DHT22;6874;52.084;5.090;2023-02-22T11:24:25;8.00;99.90
13606;DHT22;6874;52.084;5.090;2023-02-22T11:27:01;8.00;99.90
13606;DHT22;6874;52.084;5.090;2023-02-22T11:29:33;8.00;99.90
13606;DHT22;6874;52.084;5.090;2023-02-22T11:32:02;8.10;99.90
13606;DHT22;6874;52.084;5.090;2023-02-22T11:34:37;8.10;99.90
13606;DHT22;6874;52.084;5.090;2023-02-22T11:40:02;8.20;99.90
13606;DHT22;6874;52.084;5.090;2023-02-22T11:42:28;8.20;99.90
13606;DHT22;6874;52.084;5.090;2023-02-22T11:45:30;8.20;99.90
13606;DHT22;6874;52.084;5.090;2023-02-22T11:47:58;8.20;99.90
13606;DHT22;6874;52.084;5.090;2023-02-22T11:54:37;8.30;99.90
13606;DHT22;6874;52.084;5.090;2023-02-22T11:56:48;8.30;99.90
13606;DHT22;6874;52.084;5.090;2023-02-22T11:59:35;8.40;99.90
13606;DHT22;6874;52.084;5.090;2023-02-22T12:02:30;8.40;99.90
13606;DHT22;6874;52.084;5.090;2023-02-22T12:05:11;8.40;99.90
13606;DHT22;6874;52.084;5.090;2023-02-22T12:07:51;8.50;99.90
13606;DHT22;6874;52.084;5.090;2023-02-22T12:13:13;8.50;99.90
13606;DHT22;6874;52.084;5.090;2023-02-22T12:16:14;8.60;99.90
13606;DHT22;6874;52.084;5.090;2023-02-22T12:21:21;8.60;99.90
13606;DHT22;6874;52.084;5.090;2023-02-22T12:23:54;8.60;99.90
13606;DHT22;6874;52.084;5.090;2023-02-22T12:26:41;8.70;99.90
13606;DHT22;6874;52.084;5.090;2023-02-22T12:32:09;8.80;99.90
13606;DHT22;6874;52.084;5.090;2023-02-22T12:34:40;8.70;99.90
13606;DHT22;6874;52.084;5.090;2023-02-22T12:39:57;8.80;99.90
13606;DHT22;6874;52.084;5.090;2023-02-22T12:42:31;8.90;99.90
13606;DHT22;6874;52.084;5.090;2023-02-22T12:45:11;8.90;99.90
13606;DHT22;6874;52.084;5.090;2023-02-22T12:47:47;8.90;99.90
13606;DHT22;6874;52.084;5.090;2023-02-22T12:50:20;8.90;99.90
13606;DHT22;6874;52.084;5.090;2023-02-22T12:55:45;9.00;99.90
13606;DHT22;6874;52.084;5.090;2023-02-22T12:58:42;9.10;99.90
13606;DHT22;6874;52.084;5.090;2023-02-22T13:01:12;9.10;99.90
13606;DHT22;6874;52.084;5.090;2023-02-22T13:03:40;9.20;99.90
13606;DHT22;6874;52.084;5.090;2023-02-22T13:14:43;9.30;99.90
13606;DHT22;6874;52.084;5.090;2023-02-22T13:17:34;9.20;99.90
13606;DHT22;6874;52.084;5.090;2023-02-22T13:20:26;9.20;99.90
13606;DHT22;6874;52.084;5.090;2023-02-22T13:23:10;9.30;99.90
13606;DHT22;6874;52.084;5.090;2023-02-22T13:25:58;9.30;99.90
13606;DHT22;6874;52.084;5.090;2023-02-22T13:28:48;9.30;99.90
13606;DHT22;6874;52.084;5.090;2023-02-22T13:31:20;9.40;99.90
13606;DHT22;6874;52.084;5.090;2023-02-22T13:37:17;9.40;99.90
13606;DHT22;6874;52.084;5.090;2023-02-22T13:51:12;9.50;99.90
13606;DHT22;6874;52.084;5.090;2023-02-22T13:53:50;9.50;99.90
13606;DHT22;6874;52.084;5.090;2023-02-22T13:56:21;9.50;99.90
13606;DHT22;6874;52.084;5.090;2023-02-22T13:58:53;9.60;99.90
13606;DHT22;6874;52.084;5.090;2023-02-22T14:01:41;9.60;99.90
13606;DHT22;6874;52.084;5.090;2023-02-22T14:06:51;9.60;99.90
13606;DHT22;6874;52.084;5.090;2023-02-22T14:09:47;9.60;99.90
13606;DHT22;6874;52.084;5.090;2023-02-22T14:17:36;9.60;99.90
13606;DHT22;6874;52.084;5.090;2023-02-22T14:23:28;9.60;99.90
13606;DHT22;6874;52.084;5.090;2023-02-22T14:28:49;9.60;99.90
13606;DHT22;6874;52.084;5.090;2023-02-22T14:31:18;9.70;99.90
13606;DHT22;6874;52.084;5.090;2023-02-22T14:34:05;9.70;99.90
13606;DHT22;6874;52.084;5.090;2023-02-22T14:39:41;9.70;99.90
13606;DHT22;6874;52.084;5.090;2023-02-22T14:42:27;9.70;99.90
13606;DHT22;6874;52.084;5.090;2023-02-22T14:44:59;9.70;99.90
13606;DHT22;6874;52.084;5.090;2023-02-22T14:47:43;9.70;99.90
13606;DHT22;6874;52.084;5.090;2023-02-22T14:50:36;9.70;99.90
13606;DHT22;6874;52.084;5.090;2023-02-22T14:55:49;9.70;99.90
13606;DHT22;6874;52.084;5.090;2023-02-22T15:00:53;9.70;99.90
13606;DHT22;6874;52.084;5.090;2023-02-22T15:05:47;9.70;99.90
13606;DHT22;6874;52.084;5.090;2023-02-22T15:08:15;9.70;99.90
13606;DHT22;6874;52.084;5.090;2023-02-22T15:10:45;9.70;99.90
13606;DHT22;6874;52.084;5.090;2023-02-22T15:13:26;9.70;99.90
13606;DHT22;6874;52.084;5.090;2023-02-22T15:15:58;9.60;99.90
13606;DHT22;6874;52.084;5.090;2023-02-22T15:18:44;9.70;99.90
13606;DHT22;6874;52.084;5.090;2023-02-22T15:21:14;9.70;99.90
13606;DHT22;6874;52.084;5.090;2023-02-22T15:23:51;9.70;99.90
13606;DHT22;6874;52.084;5.090;2023-02-22T15:28:46;9.70;99.90
13606;DHT22;6874;52.084;5.090;2023-02-22T15:31:38;9.70;99.90
13606;DHT22;6874;52.084;5.090;2023-02-22T15:36:45;9.70;99.90
13606;DHT22;6874;52.084;5.090;2023-02-22T15:42:09;9.70;99.90
13606;DHT22;6874;52.084;5.090;2023-02-22T15:44:46;9.70;99.90
13606;DHT22;6874;52.084;5.090;2023-02-22T15:47:34;9.70;99.90
13606;DHT22;6874;52.084;5.090;2023-02-22T15:55:18;9.60;99.90
13606;DHT22;6874;52.084;5.090;2023-02-22T15:57:46;9.60;99.90
13606;DHT22;6874;52.084;5.090;2023-02-22T16:00:41;9.60;99.90
13606;DHT22;6874;52.084;5.090;2023-02-22T16:03:15;9.60;99.90
13606;DHT22;6874;52.084;5.090;2023-02-22T16:05:47;9.60;99.90
13606;DHT22;6874;52.084;5.090;2023-02-22T16:08:15;9.60;99.90
13606;DHT22;6874;52.084;5.090;2023-02-22T16:10:49;9.60;99.90
13606;DHT22;6874;52.084;5.090;2023-02-22T16:13:20;9.60;99.90
13606;DHT22;6874;52.084;5.090;2023-02-22T16:16:05;9.60;99.90
13606;DHT22;6874;52.084;5.090;2023-02-22T16:18:47;9.60;99.90
13606;DHT22;6874;52.084;5.090;2023-02-22T16:21:19;9.60;99.90
13606;DHT22;6874;52.084;5.090;2023-02-22T16:23:53;9.60;99.90
13606;DHT22;6874;52.084;5.090;2023-02-22T16:26:33;9.50;99.90
13606;DHT22;6874;52.084;5.090;2023-02-22T16:29:03;9.50;99.90
13606;DHT22;6874;52.084;5.090;2023-02-22T16:31:34;9.50;99.90
13606;DHT22;6874;52.084;5.090;2023-02-22T16:34:01;9.50;99.90
13606;DHT22;6874;52.084;5.090;2023-02-22T16:36:42;9.50;99.90
13606;DHT22;6874;52.084;5.090;2023-02-22T16:39:26;9.50;99.90
13606;DHT22;6874;52.084;5.090;2023-02-22T16:41:53;9.40;99.90
13606;DHT22;6874;52.084;5.090;2023-02-22T16:44:20;9.50;99.90
13606;DHT22;6874;52.084;5.090;2023-02-22T16:46:56;9.40;99.90
13606;DHT22;6874;52.084;5.090;2023-02-22T16:49:23;9.40;99.90
13606;DHT22;6874;52.084;5.090;2023-02-22T16:51:54;9.40;99.90
13606;DHT22;6874;52.084;5.090;2023-02-22T16:54:29;9.40;99.90
13606;DHT22;6874;52.084;5.090;2023-02-22T16:57:00;9.40;99.90
13606;DHT22;6874;52.084;5.090;2023-02-22T16:59:30;9.40;99.90
13606;DHT22;6874;52.084;5.090;2023-02-22T17:01:57;9.40;99.90
13606;DHT22;6874;52.084;5.090;2023-02-22T17:04:25;9.40;99.90
13606;DHT22;6874;52.084;5.090;2023-02-22T17:06:53;9.40;99.90
13606;DHT22;6874;52.084;5.090;2023-02-22T17:09:19;9.40;99.90
13606;DHT22;6874;52.084;5.090;2023-02-22T17:11:46;9.40;99.90
13606;DHT22;6874;52.084;5.090;2023-02-22T17:14:17;9.40;99.90
13606;DHT22;6874;52.084;5.090;2023-02-22T17:16:43;9.40;99.90
13606;DHT22;6874;52.084;5.090;2023-02-22T17:19:22;9.40;99.90
13606;DHT22;6874;52.084;5.090;2023-02-22T17:21:49;9.40;99.90
13606;DHT22;6874;52.084;5.090;2023-02-22T17:24:20;9.40;99.90
13606;DHT22;6874;52.084;5.090;2023-02-22T17:26:50;9.40;99.90
13606;DHT22;6874;52.084;5.090;2023-02-22T17:29:17;9.40;99.90
13606;DHT22;6874;52.084;5.090;2023-02-22T17:31:43;9.40;99.90
13606;DHT22;6874;52.084;5.090;2023-02-22T17:34:09;9.40;99.90
13606;DHT22;6874;52.084;5.090;2023-02-22T17:36:34;9.40;99.90
13606;DHT22;6874;52.084;5.090;2023-02-22T17:39:01;9.40;99.90
13606;DHT22;6874;52.084;5.090;2023-02-22T17:41:27;9.40;99.90
13606;DHT22;6874;52.084;5.090;2023-02-22T17:43:53;9.30;99.90
13606;DHT22;6874;52.084;5.090;2023-02-22T17:46:22;9.30;99.90
13606;DHT22;6874;52.084;5.090;2023-02-22T17:48:50;9.30;99.90
13606;DHT22;6874;52.084;5.090;2023-02-22T17:51:20;9.30;99.90
13606;DHT22;6874;52.084;5.090;2023-02-22T17:53:46;9.30;99.90
13606;DHT22;6874;52.084;5.090;2023-02-22T17:56:14;9.30;99.90
13606;DHT22;6874;52.084;5.090;2023-02-22T17:58:47;9.30;99.90
13606;DHT22;6874;52.084;5.090;2023-02-22T18:01:27;9.30;99.90
13606;DHT22;6874;52.084;5.090;2023-02-22T18:03:55;9.30;99.90
13606;DHT22;6874;52.084;5.090;2023-02-22T18:06:23;9.30;99.90
13606;DHT22;6874;52.084;5.090;2023-02-22T18:08:51;9.30;99.90
13606;DHT22;6874;52.084;5.090;2023-02-22T18:11:18;9.30;99.90
13606;DHT22;6874;52.084;5.090;2023-02-22T18:13:44;9.30;99.90
13606;DHT22;6874;52.084;5.090;2023-02-22T18:16:10;9.30;99.90
13606;DHT22;6874;52.084;5.090;2023-02-22T18:18:35;9.30;99.90
13606;DHT22;6874;52.084;5.090;2023-02-22T18:21:01;9.30;99.90
13606;DHT22;6874;52.084;5.090;2023-02-22T18:23:30;9.30;99.90
13606;DHT22;6874;52.084;5.090;2023-02-22T18:25:57;9.30;99.90
13606;DHT22;6874;52.084;5.090;2023-02-22T18:28:22;9.30;99.90
13606;DHT22;6874;52.084;5.090;2023-02-22T18:30:49;9.30;99.90
13606;DHT22;6874;52.084;5.090;2023-02-22T18:33:15;9.20;99.90
13606;DHT22;6874;52.084;5.090;2023-02-22T18:35:46;9.20;99.90